Western Star — WDE6437 — position and weather

sailwx.info

Track history (hours):
 
Tides and Currents Weather Stations Pressure Air Temp Water Temp Dewpoint Dewpoint Depression Visibility Wind Speed Wind Dir Waves Ship Positions

Western Star

Owner: Georgia-Pacific Consumer Products LP, Clatskanie, OR. More information available from US FCC via Universal Licensing System and Coast Guard Vessel Documentation Center.

Last reported at 2018-Jun-04 16:50 UTC. Time now 2018-Jun-22 03:50 UTC.
Position N 45°37' W 122°39'.
Warning: this ship's position is 17 days out of date.

Length 26 m; draft 3.5 m.

Type: Tug. MMSI: 367380280.

Date/timePositionNaut miles runAvg speedWind from/ knotsBaromVisibWave heightAir tempDewpointWater temp
2018-Jun-04 16:50N 45°37' W 122°39'2 6.8
2018-Jun-04 16:30N 45°38' W 122°42'4 7.3
2018-Jun-04 16:00N 45°40' W 122°46'4 7.8
2018-Jun-04 15:31N 45°44' W 122°46'4 7.8
2018-Jun-04 15:01N 45°48' W 122°47'4 7.6
2018-Jun-04 14:31N 45°51' W 122°47'4 7.6
2018-Jun-04 14:00N 45°55' W 122°48'5 7.6
2018-Jun-04 13:20N 45°60' W 122°51'3 7.8
2018-Jun-04 13:00N 46°02' W 122°53'5 7.4
2018-Jun-04 12:23N 46°06' W 122°57'3 7.8
2018-Jun-04 12:01N 46°08' W 122°60'4 7.6
2018-Jun-04 11:30N 46°10' W 123°04'4 7.7
2018-Jun-04 11:00N 46°11' W 123°10'4 7.7
2018-Jun-04 10:30N 46°10' W 123°15'4 7.6
2018-Jun-04 10:01N 46°09' W 123°20'3 6.3
2018-Jun-04 09:31N 46°09' W 123°24'0 0.0
2018-Jun-04 09:00N 46°09' W 123°24'0 0.0
2018-Jun-04 08:30N 46°09' W 123°24'0 0.0
2018-Jun-04 08:01N 46°09' W 123°24'0 0.0
2018-Jun-04 07:30N 46°09' W 123°24'0 0.0
2018-Jun-04 06:59N 46°09' W 123°24'0 0.0
2018-Jun-04 06:30N 46°09' W 123°24'0 0.0
2018-Jun-04 06:01N 46°09' W 123°24'0 0.0
2018-Jun-04 05:31N 46°09' W 123°24'0 0.0
2018-Jun-04 05:00N 46°09' W 123°24'0 0.0
2018-Jun-04 04:30N 46°09' W 123°24'0 0.0
2018-Jun-04 04:00N 46°09' W 123°24'0 0.0
2018-Jun-04 03:31N 46°09' W 123°24'0 0.0
2018-Jun-04 02:57N 46°09' W 123°24'0 0.0
2018-Jun-04 02:29N 46°09' W 123°24'0 0.0
2018-Jun-04 02:01N 46°09' W 123°24'0 0.0
2018-Jun-04 01:31N 46°09' W 123°24'0 0.5
2018-Jun-04 01:01N 46°10' W 123°24'0 0.2
2018-Jun-04 00:31N 46°10' W 123°24'0 0.7
2018-Jun-04 00:01N 46°09' W 123°24'0 0.0
2018-Jun-03 23:31N 46°09' W 123°24'0 0.0
2018-Jun-03 22:47N 46°09' W 123°24'0 0.0
2018-Jun-03 22:27N 46°09' W 123°24'0 0.0
2018-Jun-03 22:01N 46°09' W 123°24'0 0.0
2018-Jun-03 21:31N 46°09' W 123°24'0 0.0
2018-Jun-03 21:01N 46°09' W 123°24'0 0.0
2018-Jun-03 20:29N 46°09' W 123°24'0 0.1
2018-Jun-03 19:58N 46°09' W 123°24'0 0.9
2018-Jun-03 19:30N 46°10' W 123°25'0 0.4
2018-Jun-03 19:01N 46°10' W 123°24'0 0.2
2018-Jun-03 17:52N 46°09' W 123°24'0 0.0
2018-Jun-03 17:30N 46°09' W 123°24'0 0.0
2018-Jun-03 17:00N 46°09' W 123°24'0 0.0
2018-Jun-03 16:30N 46°09' W 123°24'0 0.0
2018-Jun-03 16:01N 46°09' W 123°24'0 0.0
2018-Jun-03 15:31N 46°09' W 123°24'0 0.0
2018-Jun-03 15:00N 46°09' W 123°24'0 0.0
2018-Jun-03 14:30N 46°09' W 123°24'0 0.0
2018-Jun-03 14:01N 46°09' W 123°24'0 0.0
2018-Jun-03 13:21N 46°09' W 123°24'0 0.0
2018-Jun-03 13:00N 46°09' W 123°24'0 0.0
2018-Jun-03 12:19N 46°09' W 123°24'0 0.0
2018-Jun-03 12:01N 46°09' W 123°24'0 0.0
2018-Jun-03 11:31N 46°09' W 123°24'0 0.0
2018-Jun-03 11:00N 46°09' W 123°24'0 0.0
2018-Jun-03 10:31N 46°09' W 123°24'0 0.0
2018-Jun-03 10:01N 46°09' W 123°24'0 0.0
2018-Jun-03 09:31N 46°09' W 123°24'0 0.0
2018-Jun-03 09:00N 46°09' W 123°24'0 0.0
2018-Jun-03 08:31N 46°09' W 123°24'0 0.5
2018-Jun-03 07:49N 46°10' W 123°24'0 0.2
2018-Jun-03 07:31N 46°10' W 123°25'0 0.8
2018-Jun-03 06:59N 46°09' W 123°24'0 0.0
2018-Jun-03 06:30N 46°09' W 123°24'0 0.0
2018-Jun-03 06:01N 46°09' W 123°24'0 0.0
2018-Jun-03 05:30N 46°09' W 123°24'0 0.0
2018-Jun-03 05:01N 46°09' W 123°24'0 0.0
2018-Jun-03 04:31N 46°09' W 123°24'0 0.0
2018-Jun-03 03:46N 46°09' W 123°24'0 0.0
2018-Jun-03 03:31N 46°09' W 123°24'0 0.0
2018-Jun-03 03:01N 46°09' W 123°24'0 0.0
2018-Jun-03 02:30N 46°09' W 123°24'0 0.0
2018-Jun-03 02:01N 46°09' W 123°24'0 0.0
2018-Jun-03 01:16N 46°09' W 123°24'0 0.0
2018-Jun-03 00:58N 46°09' W 123°24'0 0.0
2018-Jun-03 00:30N 46°09' W 123°24'0 0.0
2018-Jun-03 00:00N 46°09' W 123°24'0 0.0
2018-Jun-02 23:31N 46°09' W 123°24'0 0.0
2018-Jun-02 23:01N 46°09' W 123°24'0 0.0
2018-Jun-02 22:30N 46°09' W 123°24'0 0.0
2018-Jun-02 22:00N 46°09' W 123°24'0 0.0
2018-Jun-02 21:30N 46°09' W 123°24'0 0.6
2018-Jun-02 21:00N 46°10' W 123°24'0 0.6
2018-Jun-02 20:30N 46°09' W 123°24'0 0.2
2018-Jun-02 19:48N 46°10' W 123°24'0 1.3
2018-Jun-02 19:30N 46°10' W 123°24'0 0.7
2018-Jun-02 18:46N 46°09' W 123°24'0 0.0
2018-Jun-02 18:31N 46°09' W 123°24'0 0.0
2018-Jun-02 18:01N 46°09' W 123°24'0 0.0
2018-Jun-02 17:30N 46°09' W 123°24'0 0.0
2018-Jun-02 17:01N 46°09' W 123°24'0 0.0
2018-Jun-02 16:30N 46°09' W 123°24'0 0.0
2018-Jun-02 16:01N 46°09' W 123°24'0 0.0
2018-Jun-02 15:31N 46°09' W 123°24'0 0.6
2018-Jun-02 14:47N 46°10' W 123°25'0 0.4
2018-Jun-02 14:31N 46°10' W 123°24'0 0.6
2018-Jun-02 14:01N 46°09' W 123°24'0 0.0
2018-Jun-02 13:24N 46°09' W 123°24'0 0.0
2018-Jun-02 13:00N 46°09' W 123°24'0 0.0
2018-Jun-02 12:30N 46°09' W 123°24'0 0.0
2018-Jun-02 12:00N 46°09' W 123°24'0 0.8
2018-Jun-02 11:30N 46°10' W 123°24'0 0.1
2018-Jun-02 10:59N 46°10' W 123°25'0 0.9
2018-Jun-02 10:30N 46°09' W 123°24'0 0.0
2018-Jun-02 10:01N 46°09' W 123°24'0 0.0
2018-Jun-02 09:31N 46°09' W 123°24'0 0.0
2018-Jun-02 09:01N 46°09' W 123°24'0 0.0
2018-Jun-02 08:31N 46°09' W 123°24'0 0.0
2018-Jun-02 08:01N 46°09' W 123°24'0 0.0
2018-Jun-02 07:16N 46°09' W 123°24'0 0.0
2018-Jun-02 06:59N 46°09' W 123°24'0 0.0
2018-Jun-02 06:31N 46°09' W 123°24'0 0.0
2018-Jun-02 06:01N 46°09' W 123°24'0 0.0
2018-Jun-02 05:30N 46°09' W 123°24'0 0.0
2018-Jun-02 05:00N 46°09' W 123°24'0 0.0
2018-Jun-02 04:30N 46°09' W 123°24'0 0.0
2018-Jun-02 03:56N 46°09' W 123°24'0 0.0
2018-Jun-02 03:30N 46°09' W 123°24'0 0.0
2018-Jun-02 03:00N 46°09' W 123°24'0 0.0
2018-Jun-02 02:30N 46°09' W 123°24'0 0.4
2018-Jun-02 02:01N 46°10' W 123°24'0 0.3
2018-Jun-02 01:31N 46°10' W 123°24'0 0.7
2018-Jun-02 01:00N 46°09' W 123°24'0 0.0
2018-Jun-02 00:30N 46°09' W 123°24'0 0.0
2018-Jun-02 00:01N 46°09' W 123°24'0 0.0
2018-Jun-01 23:30N 46°09' W 123°24'0 0.0
2018-Jun-01 23:01N 46°09' W 123°24'0 0.0
2018-Jun-01 22:30N 46°09' W 123°24'0 0.0
2018-Jun-01 22:00N 46°09' W 123°24'0 0.0
2018-Jun-01 21:28N 46°09' W 123°24'0 0.0
2018-Jun-01 21:00N 46°09' W 123°24'0 0.0
2018-Jun-01 20:30N 46°09' W 123°24'0 0.0
2018-Jun-01 20:01N 46°09' W 123°24'0 0.0
2018-Jun-01 19:31N 46°09' W 123°24'0 0.0
2018-Jun-01 19:01N 46°09' W 123°24'0 0.0
2018-Jun-01 18:31N 46°09' W 123°24'0 0.5
2018-Jun-01 18:01N 46°10' W 123°24'0 0.5
2018-Jun-01 17:30N 46°09' W 123°24'0 0.0
2018-Jun-01 17:00N 46°09' W 123°24'0 0.1
2018-Jun-01 16:27N 46°09' W 123°24'0 0.0
2018-Jun-01 16:01N 46°09' W 123°24'0 0.0
2018-Jun-01 15:30N 46°09' W 123°24'0 0.0
2018-Jun-01 15:01N 46°09' W 123°24'0 0.0
2018-Jun-01 14:30N 46°09' W 123°24'0 0.0
2018-Jun-01 13:45N 46°09' W 123°24'0 0.0
2018-Jun-01 13:31N 46°09' W 123°24'0 0.0
2018-Jun-01 13:00N 46°09' W 123°24'0 0.0
2018-Jun-01 12:30N 46°09' W 123°24'0 0.0
2018-Jun-01 12:00N 46°09' W 123°24'0 0.0
2018-Jun-01 11:30N 46°09' W 123°24'0 0.0
2018-Jun-01 11:00N 46°09' W 123°24'0 0.0
2018-Jun-01 10:31N 46°09' W 123°24'0 0.0
2018-Jun-01 10:00N 46°09' W 123°24'0 0.0
2018-Jun-01 09:31N 46°09' W 123°24'0 0.0
2018-Jun-01 09:01N 46°09' W 123°24'0 0.4
2018-Jun-01 08:31N 46°10' W 123°24'0 0.4
2018-Jun-01 08:01N 46°09' W 123°24'0 0.0
2018-Jun-01 07:30N 46°09' W 123°24'0 0.0
2018-Jun-01 06:59N 46°09' W 123°24'0 0.0
2018-Jun-01 06:31N 46°09' W 123°24'0 0.0
2018-Jun-01 05:45N 46°09' W 123°24'0 0.0
2018-Jun-01 05:31N 46°09' W 123°24'0 0.0
2018-Jun-01 04:46N 46°09' W 123°24'0 0.0
2018-Jun-01 04:31N 46°09' W 123°24'0 0.0
2018-Jun-01 04:01N 46°09' W 123°24'0 0.0
2018-Jun-01 03:27N 46°09' W 123°24'0 0.0
2018-Jun-01 03:01N 46°09' W 123°24'0 0.0
2018-Jun-01 02:30N 46°09' W 123°24'0 0.0
2018-Jun-01 02:01N 46°09' W 123°24'0 0.0
2018-Jun-01 01:21N 46°09' W 123°24'0 0.0
2018-Jun-01 01:01N 46°09' W 123°24'0 0.0
2018-Jun-01 00:30N 46°09' W 123°24'0 0.0
2018-Jun-01 00:00N 46°09' W 123°24'0 0.0
2018-May-31 23:30N 46°09' W 123°24'0 0.0
2018-May-31 23:00N 46°09' W 123°24'0 0.9
2018-May-31 22:30N 46°10' W 123°25'0 0.8
2018-May-31 22:01N 46°09' W 123°24'0 0.0
2018-May-31 21:31N 46°09' W 123°24'0 0.0
2018-May-31 21:00N 46°09' W 123°24'0 0.0
2018-May-31 20:30N 46°09' W 123°24'0 0.0
2018-May-31 20:00N 46°09' W 123°24'0 0.0
2018-May-31 19:30N 46°09' W 123°24'0 0.0
2018-May-31 19:01N 46°09' W 123°24'0 0.0
2018-May-31 18:25N 46°09' W 123°24'0 0.0
2018-May-31 17:45N 46°09' W 123°24'0 0.0
2018-May-31 17:30N 46°09' W 123°24'0 0.0
2018-May-31 17:00N 46°09' W 123°24'0 0.0
2018-May-31 16:30N 46°09' W 123°24'0 0.0
2018-May-31 16:00N 46°09' W 123°24'0 0.0
2018-May-31 15:31N 46°09' W 123°24'0 0.0
2018-May-31 14:48N 46°09' W 123°24'0 0.2
2018-May-31 14:31N 46°09' W 123°24'0 0.7
2018-May-31 14:01N 46°10' W 123°24'0 0.1
2018-May-31 13:30N 46°10' W 123°25'0 0.9
2018-May-31 13:00N 46°09' W 123°24'0 0.0
2018-May-31 12:31N 46°09' W 123°24'0 0.0
2018-May-31 04:42N 46°09' W 123°24'0 0.0
2018-May-31 04:31N 46°09' W 123°24'0 0.0
2018-May-31 04:00N 46°09' W 123°24'0 0.2
2018-May-31 03:30N 46°10' W 123°24'0 0.3
2018-May-31 03:01N 46°09' W 123°24'0 0.0
2018-May-31 02:30N 46°09' W 123°24'0 0.0
2018-May-31 02:00N 46°09' W 123°24'0 0.0
2018-May-31 01:31N 46°09' W 123°24'0 0.0
2018-May-31 01:01N 46°09' W 123°24'0 0.0
2018-May-31 00:30N 46°09' W 123°24'0 0.0
2018-May-31 00:01N 46°09' W 123°24'0 0.0
2018-May-30 23:30N 46°09' W 123°24'0 0.0
2018-May-30 23:01N 46°09' W 123°24'0 0.0
2018-May-30 22:16N 46°09' W 123°24'0 0.0
2018-May-30 22:00N 46°09' W 123°24'0 0.0
2018-May-30 21:30N 46°09' W 123°24'0 0.0
2018-May-30 21:00N 46°09' W 123°24'0 0.0
2018-May-30 20:31N 46°09' W 123°24'0 0.0
2018-May-30 19:59N 46°09' W 123°24'0 0.0
2018-May-30 19:30N 46°09' W 123°24'0 0.0
2018-May-30 19:00N 46°09' W 123°24'0 0.0
2018-May-30 18:31N 46°09' W 123°24'0 0.0
2018-May-30 18:00N 46°09' W 123°24'0 0.0
2018-May-30 17:30N 46°09' W 123°24'0 0.0
2018-May-30 17:00N 46°09' W 123°24'0 0.7
2018-May-30 16:31N 46°10' W 123°24'0 0.0
2018-May-30 16:00N 46°10' W 123°24'0 0.3
2018-May-30 15:17N 46°10' W 123°24'0 1.5
2018-May-30 15:01N 46°09' W 123°24'0 0.1
2018-May-30 14:31N 46°09' W 123°24'0 0.0
2018-May-30 14:01N 46°09' W 123°24'0 0.0
2018-May-30 13:31N 46°09' W 123°24'0 0.0
2018-May-30 13:00N 46°09' W 123°24'0 0.0
2018-May-30 12:31N 46°09' W 123°24'0 0.0
2018-May-30 12:00N 46°09' W 123°24'0 0.0
2018-May-30 11:31N 46°09' W 123°24'0 0.0
2018-May-30 11:01N 46°09' W 123°24'0 0.0
2018-May-30 10:15N 46°09' W 123°24'0 0.0
2018-May-30 10:00N 46°09' W 123°24'0 0.0
2018-May-30 09:31N 46°09' W 123°24'0 0.0
2018-May-30 09:00N 46°09' W 123°24'0 0.0
2018-May-30 08:31N 46°09' W 123°24'0 0.0
2018-May-30 08:01N 46°09' W 123°24'0 0.0
2018-May-30 07:31N 46°09' W 123°24'0 0.0
2018-May-30 06:59N 46°09' W 123°24'0 0.0
2018-May-30 06:30N 46°09' W 123°24'0 0.0
2018-May-30 06:00N 46°09' W 123°24'0 0.3
2018-May-30 05:16N 46°10' W 123°24'0 1.0
2018-May-30 05:00N 46°09' W 123°24'0 0.0
2018-May-30 04:30N 46°09' W 123°24'0 0.0
2018-May-30 04:00N 46°09' W 123°24'0 0.0
2018-May-30 03:31N 46°09' W 123°24'0 0.0
2018-May-30 02:47N 46°09' W 123°24'0 0.0
2018-May-30 02:30N 46°09' W 123°24'0 0.0
2018-May-30 01:53N 46°09' W 123°24'0 0.0
2018-May-30 01:31N 46°09' W 123°24'0 0.0
2018-May-30 01:00N 46°09' W 123°24'0 0.0
2018-May-30 00:30N 46°09' W 123°24'0 0.0
2018-May-29 23:53N 46°09' W 123°24'0 0.0
2018-May-29 23:31N 46°09' W 123°24'0 0.0
2018-May-29 23:01N 46°09' W 123°24'0 0.0
2018-May-29 22:30N 46°09' W 123°24'0 0.0
2018-May-29 22:00N 46°09' W 123°24'0 0.0
2018-May-29 21:25N 46°09' W 123°24'0 0.0
2018-May-29 21:00N 46°09' W 123°24'0 0.0
2018-May-29 20:31N 46°09' W 123°24'0 0.0
2018-May-29 20:00N 46°09' W 123°24'0 0.0
2018-May-29 19:30N 46°09' W 123°24'0 0.0
2018-May-29 19:00N 46°09' W 123°24'0 0.0
2018-May-29 18:30N 46°09' W 123°24'0 0.0
2018-May-29 18:00N 46°09' W 123°24'0 0.0
2018-May-29 17:30N 46°09' W 123°24'0 0.0
2018-May-29 17:00N 46°09' W 123°24'0 0.4
2018-May-29 16:31N 46°10' W 123°24'0 0.6
2018-May-29 16:01N 46°10' W 123°25'0 1.0
2018-May-29 15:31N 46°09' W 123°24'0 0.0
2018-May-29 15:01N 46°09' W 123°24'0 0.0
2018-May-29 14:31N 46°09' W 123°24'0 0.0
2018-May-29 14:00N 46°09' W 123°24'0 0.0
2018-May-29 13:30N 46°09' W 123°24'0 0.0
2018-May-29 13:00N 46°09' W 123°24'0 0.0
2018-May-29 12:23N 46°09' W 123°24'0 0.0
2018-May-29 11:41N 46°09' W 123°24'0 0.0
2018-May-29 11:30N 46°09' W 123°24'0 0.0
2018-May-29 11:00N 46°09' W 123°24'0 0.0
2018-May-29 10:30N 46°09' W 123°24'0 0.0
2018-May-29 10:01N 46°09' W 123°24'0 0.0
2018-May-29 09:31N 46°09' W 123°24'0 0.0
2018-May-29 09:01N 46°09' W 123°24'0 0.0
2018-May-29 08:30N 46°09' W 123°24'0 0.0
2018-May-29 07:52N 46°09' W 123°24'0 0.0
2018-May-29 07:31N 46°09' W 123°24'0 0.7
2018-May-29 06:59N 46°10' W 123°24'0 0.0
2018-May-29 06:31N 46°10' W 123°24'0 0.8
2018-May-29 06:00N 46°09' W 123°24'0 0.0
2018-May-29 05:31N 46°09' W 123°24'0 0.0
2018-May-29 05:01N 46°09' W 123°24'0 0.0
2018-May-29 04:30N 46°09' W 123°24'0 0.0
2018-May-29 04:00N 46°09' W 123°24'0 0.0
2018-May-29 03:31N 46°09' W 123°24'0 0.0
2018-May-29 03:00N 46°09' W 123°24'0 0.0
2018-May-29 02:16N 46°09' W 123°24'0 0.0
2018-May-29 02:01N 46°09' W 123°24'0 0.0
2018-May-29 01:30N 46°09' W 123°24'0 0.0
2018-May-29 01:01N 46°09' W 123°24'0 0.0
2018-May-29 00:30N 46°09' W 123°24'0 0.0
2018-May-29 00:01N 46°09' W 123°24'0 0.0
2018-May-28 23:31N 46°09' W 123°24'0 0.0
2018-May-28 23:01N 46°09' W 123°24'0 0.9
2018-May-28 22:31N 46°10' W 123°24'0 0.4
2018-May-28 22:00N 46°10' W 123°24'0 0.8
2018-May-28 21:31N 46°09' W 123°24'0 0.0
2018-May-28 21:00N 46°09' W 123°24'0 0.0
2018-May-28 20:16N 46°09' W 123°24'0 0.0
2018-May-28 20:01N 46°09' W 123°24'0 0.0
2018-May-28 19:31N 46°09' W 123°24'0 0.0
2018-May-28 19:00N 46°09' W 123°24'0 0.0
2018-May-28 18:31N 46°09' W 123°24'0 0.0
2018-May-28 18:00N 46°09' W 123°24'0 0.0
2018-May-28 17:29N 46°09' W 123°24'0 0.0
2018-May-28 17:01N 46°09' W 123°24'0 0.0
2018-May-28 16:31N 46°09' W 123°24'0 0.0
2018-May-28 16:00N 46°09' W 123°24'0 0.0
2018-May-28 15:30N 46°09' W 123°24'0 0.6
2018-May-28 15:01N 46°10' W 123°24'0 0.6
2018-May-28 14:30N 46°09' W 123°24'0 0.0
2018-May-28 14:00N 46°09' W 123°24'0 0.0
2018-May-28 13:31N 46°09' W 123°24'0 0.0
2018-May-28 13:00N 46°09' W 123°24'0 0.0
2018-May-28 12:30N 46°09' W 123°24'0 0.0
2018-May-28 12:00N 46°09' W 123°24'0 0.0
2018-May-28 11:30N 46°09' W 123°24'0 0.0
2018-May-28 11:00N 46°09' W 123°24'0 0.0
2018-May-28 10:31N 46°09' W 123°24'0 0.0
2018-May-28 10:01N 46°09' W 123°24'0 0.0
2018-May-28 09:31N 46°09' W 123°24'0 0.0
2018-May-28 08:57N 46°09' W 123°24'0 0.0
2018-May-28 08:30N 46°09' W 123°24'0 0.0
2018-May-28 08:01N 46°09' W 123°24'0 0.0
2018-May-28 07:31N 46°09' W 123°24'0 0.0
2018-May-28 06:59N 46°09' W 123°24'0 0.0
2018-May-28 06:30N 46°09' W 123°24'0 0.5
2018-May-28 06:00N 46°10' W 123°24'0 0.1
2018-May-28 05:31N 46°10' W 123°24'0 0.2
2018-May-28 05:00N 46°10' W 123°25'0 0.9
2018-May-28 04:30N 46°09' W 123°24'0 0.0
2018-May-28 03:56N 46°09' W 123°24'0 0.0
2018-May-28 03:30N 46°09' W 123°24'0 0.0
2018-May-28 02:58N 46°09' W 123°24'0 0.0
2018-May-28 02:30N 46°09' W 123°24'0 0.0
2018-May-28 02:00N 46°09' W 123°24'0 0.0
2018-May-28 01:31N 46°09' W 123°24'0 0.0
2018-May-28 01:01N 46°09' W 123°24'0 0.0
2018-May-28 00:29N 46°09' W 123°24'0 0.0
2018-May-28 00:01N 46°09' W 123°24'0 0.0
2018-May-27 23:31N 46°09' W 123°24'0 0.3
2018-May-27 23:00N 46°10' W 123°24'0 0.7
2018-May-27 22:30N 46°10' W 123°24'0 0.7
2018-May-27 22:01N 46°10' W 123°24'0 0.1
2018-May-27 21:30N 46°10' W 123°24'0 0.1
2018-May-27 21:01N 46°10' W 123°24'0 0.4
2018-May-27 20:30N 46°10' W 123°24'0 0.1
2018-May-27 20:01N 46°10' W 123°24'0 0.8
2018-May-27 19:31N 46°09' W 123°24'0 0.0
2018-May-27 19:01N 46°09' W 123°24'0 0.0
2018-May-27 18:31N 46°09' W 123°24'0 0.0
2018-May-27 18:00N 46°09' W 123°24'0 0.0
2018-May-27 17:31N 46°09' W 123°24'0 0.0
2018-May-27 17:00N 46°09' W 123°24'0 0.0
2018-May-27 16:31N 46°09' W 123°24'0 0.0
2018-May-27 16:01N 46°09' W 123°24'0 0.0
2018-May-27 15:31N 46°09' W 123°24'0 0.0
2018-May-27 15:00N 46°09' W 123°24'0 0.0
2018-May-27 14:31N 46°09' W 123°24'0 0.0
2018-May-27 14:01N 46°09' W 123°24'0 0.0
2018-May-27 13:30N 46°09' W 123°24'0 0.0
2018-May-27 13:00N 46°09' W 123°24'0 0.5
2018-May-27 12:30N 46°10' W 123°24'0 0.2
2018-May-27 12:01N 46°10' W 123°24'0 0.0
2018-May-27 11:31N 46°10' W 123°24'0 0.2
2018-May-27 11:01N 46°10' W 123°25'0 0.9
2018-May-27 10:30N 46°09' W 123°24'0 0.0
2018-May-27 10:00N 46°09' W 123°24'0 0.0
2018-May-27 09:31N 46°09' W 123°24'0 0.0
2018-May-27 09:01N 46°09' W 123°24'0 0.0
2018-May-27 08:30N 46°09' W 123°24'0 0.0
2018-May-27 08:00N 46°09' W 123°24'0 0.0
2018-May-27 07:30N 46°09' W 123°24'0 0.0
2018-May-27 06:59N 46°09' W 123°24'0 0.0
2018-May-27 06:29N 46°09' W 123°24'0 0.0
2018-May-27 06:00N 46°09' W 123°24'0 0.0
2018-May-27 05:29N 46°09' W 123°24'0 0.0
2018-May-27 05:00N 46°09' W 123°24'0 0.0
2018-May-27 04:31N 46°09' W 123°24'0 0.0
2018-May-27 03:55N 46°09' W 123°24'0 1.0
2018-May-27 03:31N 46°10' W 123°24'0 0.1
2018-May-27 02:59N 46°10' W 123°24'0 0.8
2018-May-27 02:30N 46°09' W 123°24'0 0.0
2018-May-27 02:00N 46°09' W 123°24'0 0.0
2018-May-27 01:30N 46°09' W 123°24'0 0.0
2018-May-27 01:01N 46°09' W 123°24'0 0.0
2018-May-27 00:25N 46°09' W 123°24'0 0.0
2018-May-27 00:00N 46°09' W 123°24'0 0.0
2018-May-26 23:31N 46°09' W 123°24'0 0.0
2018-May-26 23:00N 46°09' W 123°24'0 0.0
2018-May-26 22:29N 46°09' W 123°24'0 0.0
2018-May-26 22:00N 46°09' W 123°24'0 0.3
2018-May-26 21:31N 46°10' W 123°24'0 0.6
2018-May-26 20:55N 46°10' W 123°24'0 1.0
2018-May-26 20:24N 46°09' W 123°24'0 0.1
2018-May-26 20:00N 46°09' W 123°24'0 0.2
2018-May-26 19:30N 46°10' W 123°24'0 0.5
2018-May-26 19:00N 46°10' W 123°24'0 0.7
2018-May-26 18:30N 46°09' W 123°24'0 0.0
2018-May-26 18:00N 46°09' W 123°24'0 0.0
2018-May-26 17:31N 46°09' W 123°24'0 0.0
2018-May-26 17:00N 46°09' W 123°24'0 0.0
2018-May-26 16:31N 46°09' W 123°24'0 0.0
2018-May-26 15:28N 46°09' W 123°24'0 0.0
2018-May-26 14:46N 46°09' W 123°24'0 0.0
2018-May-26 14:29N 46°09' W 123°24'0 0.0
2018-May-26 14:00N 46°09' W 123°24'0 0.0
2018-May-26 13:07N 46°09' W 123°24'0 0.0
2018-May-26 12:53N 46°09' W 123°24'0 0.0
2018-May-26 12:31N 46°09' W 123°24'0 0.2
2018-May-26 12:00N 46°10' W 123°24'0 0.7
2018-May-26 11:30N 46°10' W 123°25'0 0.9
2018-May-26 11:00N 46°09' W 123°24'0 0.0
2018-May-26 10:30N 46°09' W 123°24'0 0.0
2018-May-26 10:00N 46°09' W 123°24'0 0.0
2018-May-26 09:30N 46°09' W 123°24'0 0.0
2018-May-26 09:00N 46°09' W 123°24'0 0.0
2018-May-26 08:30N 46°09' W 123°24'0 0.0
2018-May-26 07:58N 46°09' W 123°24'0 0.0
2018-May-26 07:30N 46°09' W 123°24'0 0.0
2018-May-26 06:59N 46°09' W 123°24'0 0.0
2018-May-26 06:30N 46°09' W 123°24'0 0.0
2018-May-26 05:30N 46°09' W 123°24'0 0.0
2018-May-26 05:01N 46°09' W 123°24'0 0.0
2018-May-26 04:30N 46°09' W 123°24'0 0.9
2018-May-26 04:00N 46°10' W 123°25'0 0.2
2018-May-26 03:31N 46°10' W 123°24'0 0.7
2018-May-26 03:00N 46°09' W 123°24'0 0.0
2018-May-26 02:30N 46°09' W 123°24'0 0.0
2018-May-26 02:00N 46°09' W 123°24'0 0.0
2018-May-26 01:30N 46°09' W 123°24'0 0.0
2018-May-26 01:01N 46°09' W 123°24'0 0.0
2018-May-26 00:26N 46°09' W 123°24'0 0.0
2018-May-26 00:00N 46°09' W 123°24'0 0.0
2018-May-25 23:30N 46°09' W 123°24'0 0.0
2018-May-25 23:01N 46°09' W 123°24'0 0.0
2018-May-25 22:30N 46°09' W 123°24'0 0.3
2018-May-25 22:00N 46°10' W 123°24'0 0.3
2018-May-25 21:31N 46°10' W 123°24'0 0.6
2018-May-25 21:00N 46°09' W 123°24'0 0.0
2018-May-25 20:30N 46°09' W 123°24'0 0.0
2018-May-25 20:01N 46°09' W 123°24'0 0.0
2018-May-25 19:31N 46°09' W 123°24'0 0.0
2018-May-25 19:00N 46°09' W 123°24'0 1.0
2018-May-25 18:30N 46°10' W 123°24'1 1.0
2018-May-25 18:01N 46°09' W 123°24'0 0.1
2018-May-25 17:30N 46°09' W 123°24'0 0.6
2018-May-25 17:00N 46°10' W 123°24'  
Track history (hours):
 
Tides and Currents Weather Stations Pressure Air Temp Water Temp Dewpoint Dewpoint Depression Visibility Wind Speed Wind Dir Waves Ship Positions

Western Star

Owner: Georgia-Pacific Consumer Products LP, Clatskanie, OR. More information available from US FCC via Universal Licensing System and Coast Guard Vessel Documentation Center.

Last reported at 2018-Jun-04 16:50 UTC. Time now 2018-Jun-22 03:50 UTC.
Position N 45°37' W 122°39'.
Warning: this ship's position is 17 days out of date.

Length 26 m; draft 3.5 m.

Type: Tug. MMSI: 367380280.

Date/timePositionNaut miles runAvg speedWind from/ knotsBaromVisibWave heightAir tempDewpointWater temp
2018-Jun-04 16:50N 45°37' W 122°39'2 6.8
2018-Jun-04 16:30N 45°38' W 122°42'4 7.3
2018-Jun-04 16:00N 45°40' W 122°46'4 7.8
2018-Jun-04 15:31N 45°44' W 122°46'4 7.8
2018-Jun-04 15:01N 45°48' W 122°47'4 7.6
2018-Jun-04 14:31N 45°51' W 122°47'4 7.6
2018-Jun-04 14:00N 45°55' W 122°48'5 7.6
2018-Jun-04 13:20N 45°60' W 122°51'3 7.8
2018-Jun-04 13:00N 46°02' W 122°53'5 7.4
2018-Jun-04 12:23N 46°06' W 122°57'3 7.8
2018-Jun-04 12:01N 46°08' W 122°60'4 7.6
2018-Jun-04 11:30N 46°10' W 123°04'4 7.7
2018-Jun-04 11:00N 46°11' W 123°10'4 7.7
2018-Jun-04 10:30N 46°10' W 123°15'4 7.6
2018-Jun-04 10:01N 46°09' W 123°20'3 6.3
2018-Jun-04 09:31N 46°09' W 123°24'0 0.0
2018-Jun-04 09:00N 46°09' W 123°24'0 0.0
2018-Jun-04 08:30N 46°09' W 123°24'0 0.0
2018-Jun-04 08:01N 46°09' W 123°24'0 0.0
2018-Jun-04 07:30N 46°09' W 123°24'0 0.0
2018-Jun-04 06:59N 46°09' W 123°24'0 0.0
2018-Jun-04 06:30N 46°09' W 123°24'0 0.0
2018-Jun-04 06:01N 46°09' W 123°24'0 0.0
2018-Jun-04 05:31N 46°09' W 123°24'0 0.0
2018-Jun-04 05:00N 46°09' W 123°24'0 0.0
2018-Jun-04 04:30N 46°09' W 123°24'0 0.0
2018-Jun-04 04:00N 46°09' W 123°24'0 0.0
2018-Jun-04 03:31N 46°09' W 123°24'0 0.0
2018-Jun-04 02:57N 46°09' W 123°24'0 0.0
2018-Jun-04 02:29N 46°09' W 123°24'0 0.0
2018-Jun-04 02:01N 46°09' W 123°24'0 0.0
2018-Jun-04 01:31N 46°09' W 123°24'0 0.5
2018-Jun-04 01:01N 46°10' W 123°24'0 0.2
2018-Jun-04 00:31N 46°10' W 123°24'0 0.7
2018-Jun-04 00:01N 46°09' W 123°24'0 0.0
2018-Jun-03 23:31N 46°09' W 123°24'0 0.0
2018-Jun-03 22:47N 46°09' W 123°24'0 0.0
2018-Jun-03 22:27N 46°09' W 123°24'0 0.0
2018-Jun-03 22:01N 46°09' W 123°24'0 0.0
2018-Jun-03 21:31N 46°09' W 123°24'0 0.0
2018-Jun-03 21:01N 46°09' W 123°24'0 0.0
2018-Jun-03 20:29N 46°09' W 123°24'0 0.1
2018-Jun-03 19:58N 46°09' W 123°24'0 0.9
2018-Jun-03 19:30N 46°10' W 123°25'0 0.4
2018-Jun-03 19:01N 46°10' W 123°24'0 0.2
2018-Jun-03 17:52N 46°09' W 123°24'0 0.0
2018-Jun-03 17:30N 46°09' W 123°24'0 0.0
2018-Jun-03 17:00N 46°09' W 123°24'0 0.0
2018-Jun-03 16:30N 46°09' W 123°24'0 0.0
2018-Jun-03 16:01N 46°09' W 123°24'0 0.0
2018-Jun-03 15:31N 46°09' W 123°24'0 0.0
2018-Jun-03 15:00N 46°09' W 123°24'0 0.0
2018-Jun-03 14:30N 46°09' W 123°24'0 0.0
2018-Jun-03 14:01N 46°09' W 123°24'0 0.0
2018-Jun-03 13:21N 46°09' W 123°24'0 0.0
2018-Jun-03 13:00N 46°09' W 123°24'0 0.0
2018-Jun-03 12:19N 46°09' W 123°24'0 0.0
2018-Jun-03 12:01N 46°09' W 123°24'0 0.0
2018-Jun-03 11:31N 46°09' W 123°24'0 0.0
2018-Jun-03 11:00N 46°09' W 123°24'0 0.0
2018-Jun-03 10:31N 46°09' W 123°24'0 0.0
2018-Jun-03 10:01N 46°09' W 123°24'0 0.0
2018-Jun-03 09:31N 46°09' W 123°24'0 0.0
2018-Jun-03 09:00N 46°09' W 123°24'0 0.0
2018-Jun-03 08:31N 46°09' W 123°24'0 0.5
2018-Jun-03 07:49N 46°10' W 123°24'0 0.2
2018-Jun-03 07:31N 46°10' W 123°25'0 0.8
2018-Jun-03 06:59N 46°09' W 123°24'0 0.0
2018-Jun-03 06:30N 46°09' W 123°24'0 0.0
2018-Jun-03 06:01N 46°09' W 123°24'0 0.0
2018-Jun-03 05:30N 46°09' W 123°24'0 0.0
2018-Jun-03 05:01N 46°09' W 123°24'0 0.0
2018-Jun-03 04:31N 46°09' W 123°24'0 0.0
2018-Jun-03 03:46N 46°09' W 123°24'0 0.0
2018-Jun-03 03:31N 46°09' W 123°24'0 0.0
2018-Jun-03 03:01N 46°09' W 123°24'0 0.0
2018-Jun-03 02:30N 46°09' W 123°24'0 0.0
2018-Jun-03 02:01N 46°09' W 123°24'0 0.0
2018-Jun-03 01:16N 46°09' W 123°24'0 0.0
2018-Jun-03 00:58N 46°09' W 123°24'0 0.0
2018-Jun-03 00:30N 46°09' W 123°24'0 0.0
2018-Jun-03 00:00N 46°09' W 123°24'0 0.0
2018-Jun-02 23:31N 46°09' W 123°24'0 0.0
2018-Jun-02 23:01N 46°09' W 123°24'0 0.0
2018-Jun-02 22:30N 46°09' W 123°24'0 0.0
2018-Jun-02 22:00N 46°09' W 123°24'0 0.0
2018-Jun-02 21:30N 46°09' W 123°24'0 0.6
2018-Jun-02 21:00N 46°10' W 123°24'0 0.6
2018-Jun-02 20:30N 46°09' W 123°24'0 0.2
2018-Jun-02 19:48N 46°10' W 123°24'0 1.3
2018-Jun-02 19:30N 46°10' W 123°24'0 0.7
2018-Jun-02 18:46N 46°09' W 123°24'0 0.0
2018-Jun-02 18:31N 46°09' W 123°24'0 0.0
2018-Jun-02 18:01N 46°09' W 123°24'0 0.0
2018-Jun-02 17:30N 46°09' W 123°24'0 0.0
2018-Jun-02 17:01N 46°09' W 123°24'0 0.0
2018-Jun-02 16:30N 46°09' W 123°24'0 0.0
2018-Jun-02 16:01N 46°09' W 123°24'0 0.0
2018-Jun-02 15:31N 46°09' W 123°24'0 0.6
2018-Jun-02 14:47N 46°10' W 123°25'0 0.4
2018-Jun-02 14:31N 46°10' W 123°24'0 0.6
2018-Jun-02 14:01N 46°09' W 123°24'0 0.0
2018-Jun-02 13:24N 46°09' W 123°24'0 0.0
2018-Jun-02 13:00N 46°09' W 123°24'0 0.0
2018-Jun-02 12:30N 46°09' W 123°24'0 0.0
2018-Jun-02 12:00N 46°09' W 123°24'0 0.8
2018-Jun-02 11:30N 46°10' W 123°24'0 0.1
2018-Jun-02 10:59N 46°10' W 123°25'0 0.9
2018-Jun-02 10:30N 46°09' W 123°24'0 0.0
2018-Jun-02 10:01N 46°09' W 123°24'0 0.0
2018-Jun-02 09:31N 46°09' W 123°24'0 0.0
2018-Jun-02 09:01N 46°09' W 123°24'0 0.0
2018-Jun-02 08:31N 46°09' W 123°24'0 0.0
2018-Jun-02 08:01N 46°09' W 123°24'0 0.0
2018-Jun-02 07:16N 46°09' W 123°24'0 0.0
2018-Jun-02 06:59N 46°09' W 123°24'0 0.0
2018-Jun-02 06:31N 46°09' W 123°24'0 0.0
2018-Jun-02 06:01N 46°09' W 123°24'0 0.0
2018-Jun-02 05:30N 46°09' W 123°24'0 0.0
2018-Jun-02 05:00N 46°09' W 123°24'0 0.0
2018-Jun-02 04:30N 46°09' W 123°24'0 0.0
2018-Jun-02 03:56N 46°09' W 123°24'0 0.0
2018-Jun-02 03:30N 46°09' W 123°24'0 0.0
2018-Jun-02 03:00N 46°09' W 123°24'0 0.0
2018-Jun-02 02:30N 46°09' W 123°24'0 0.4
2018-Jun-02 02:01N 46°10' W 123°24'0 0.3
2018-Jun-02 01:31N 46°10' W 123°24'0 0.7
2018-Jun-02 01:00N 46°09' W 123°24'0 0.0
2018-Jun-02 00:30N 46°09' W 123°24'0 0.0
2018-Jun-02 00:01N 46°09' W 123°24'0 0.0
2018-Jun-01 23:30N 46°09' W 123°24'0 0.0
2018-Jun-01 23:01N 46°09' W 123°24'0 0.0
2018-Jun-01 22:30N 46°09' W 123°24'0 0.0
2018-Jun-01 22:00N 46°09' W 123°24'0 0.0
2018-Jun-01 21:28N 46°09' W 123°24'0 0.0
2018-Jun-01 21:00N 46°09' W 123°24'0 0.0
2018-Jun-01 20:30N 46°09' W 123°24'0 0.0
2018-Jun-01 20:01N 46°09' W 123°24'0 0.0
2018-Jun-01 19:31N 46°09' W 123°24'0 0.0
2018-Jun-01 19:01N 46°09' W 123°24'0 0.0
2018-Jun-01 18:31N 46°09' W 123°24'0 0.5
2018-Jun-01 18:01N 46°10' W 123°24'0 0.5
2018-Jun-01 17:30N 46°09' W 123°24'0 0.0
2018-Jun-01 17:00N 46°09' W 123°24'0 0.1
2018-Jun-01 16:27N 46°09' W 123°24'0 0.0
2018-Jun-01 16:01N 46°09' W 123°24'0 0.0
2018-Jun-01 15:30N 46°09' W 123°24'0 0.0
2018-Jun-01 15:01N 46°09' W 123°24'0 0.0
2018-Jun-01 14:30N 46°09' W 123°24'0 0.0
2018-Jun-01 13:45N 46°09' W 123°24'0 0.0
2018-Jun-01 13:31N 46°09' W 123°24'0 0.0
2018-Jun-01 13:00N 46°09' W 123°24'0 0.0
2018-Jun-01 12:30N 46°09' W 123°24'0 0.0
2018-Jun-01 12:00N 46°09' W 123°24'0 0.0
2018-Jun-01 11:30N 46°09' W 123°24'0 0.0
2018-Jun-01 11:00N 46°09' W 123°24'0 0.0
2018-Jun-01 10:31N 46°09' W 123°24'0 0.0
2018-Jun-01 10:00N 46°09' W 123°24'0 0.0
2018-Jun-01 09:31N 46°09' W 123°24'0 0.0
2018-Jun-01 09:01N 46°09' W 123°24'0 0.4
2018-Jun-01 08:31N 46°10' W 123°24'0 0.4
2018-Jun-01 08:01N 46°09' W 123°24'0 0.0
2018-Jun-01 07:30N 46°09' W 123°24'0 0.0
2018-Jun-01 06:59N 46°09' W 123°24'0 0.0
2018-Jun-01 06:31N 46°09' W 123°24'0 0.0
2018-Jun-01 05:45N 46°09' W 123°24'0 0.0
2018-Jun-01 05:31N 46°09' W 123°24'0 0.0
2018-Jun-01 04:46N 46°09' W 123°24'0 0.0
2018-Jun-01 04:31N 46°09' W 123°24'0 0.0
2018-Jun-01 04:01N 46°09' W 123°24'0 0.0
2018-Jun-01 03:27N 46°09' W 123°24'0 0.0
2018-Jun-01 03:01N 46°09' W 123°24'0 0.0
2018-Jun-01 02:30N 46°09' W 123°24'0 0.0
2018-Jun-01 02:01N 46°09' W 123°24'0 0.0
2018-Jun-01 01:21N 46°09' W 123°24'0 0.0
2018-Jun-01 01:01N 46°09' W 123°24'0 0.0
2018-Jun-01 00:30N 46°09' W 123°24'0 0.0
2018-Jun-01 00:00N 46°09' W 123°24'0 0.0
2018-May-31 23:30N 46°09' W 123°24'0 0.0
2018-May-31 23:00N 46°09' W 123°24'0 0.9
2018-May-31 22:30N 46°10' W 123°25'0 0.8
2018-May-31 22:01N 46°09' W 123°24'0 0.0
2018-May-31 21:31N 46°09' W 123°24'0 0.0
2018-May-31 21:00N 46°09' W 123°24'0 0.0
2018-May-31 20:30N 46°09' W 123°24'0 0.0
2018-May-31 20:00N 46°09' W 123°24'0 0.0
2018-May-31 19:30N 46°09' W 123°24'0 0.0
2018-May-31 19:01N 46°09' W 123°24'0 0.0
2018-May-31 18:25N 46°09' W 123°24'0 0.0
2018-May-31 17:45N 46°09' W 123°24'0 0.0
2018-May-31 17:30N 46°09' W 123°24'0 0.0
2018-May-31 17:00N 46°09' W 123°24'0 0.0
2018-May-31 16:30N 46°09' W 123°24'0 0.0
2018-May-31 16:00N 46°09' W 123°24'0 0.0
2018-May-31 15:31N 46°09' W 123°24'0 0.0
2018-May-31 14:48N 46°09' W 123°24'0 0.2
2018-May-31 14:31N 46°09' W 123°24'0 0.7
2018-May-31 14:01N 46°10' W 123°24'0 0.1
2018-May-31 13:30N 46°10' W 123°25'0 0.9
2018-May-31 13:00N 46°09' W 123°24'0 0.0
2018-May-31 12:31N 46°09' W 123°24'0 0.0
2018-May-31 04:42N 46°09' W 123°24'0 0.0
2018-May-31 04:31N 46°09' W 123°24'0 0.0
2018-May-31 04:00N 46°09' W 123°24'0 0.2
2018-May-31 03:30N 46°10' W 123°24'0 0.3
2018-May-31 03:01N 46°09' W 123°24'0 0.0
2018-May-31 02:30N 46°09' W 123°24'0 0.0
2018-May-31 02:00N 46°09' W 123°24'0 0.0
2018-May-31 01:31N 46°09' W 123°24'0 0.0
2018-May-31 01:01N 46°09' W 123°24'0 0.0
2018-May-31 00:30N 46°09' W 123°24'0 0.0
2018-May-31 00:01N 46°09' W 123°24'0 0.0
2018-May-30 23:30N 46°09' W 123°24'0 0.0
2018-May-30 23:01N 46°09' W 123°24'0 0.0
2018-May-30 22:16N 46°09' W 123°24'0 0.0
2018-May-30 22:00N 46°09' W 123°24'0 0.0
2018-May-30 21:30N 46°09' W 123°24'0 0.0
2018-May-30 21:00N 46°09' W 123°24'0 0.0
2018-May-30 20:31N 46°09' W 123°24'0 0.0
2018-May-30 19:59N 46°09' W 123°24'0 0.0
2018-May-30 19:30N 46°09' W 123°24'0 0.0
2018-May-30 19:00N 46°09' W 123°24'0 0.0
2018-May-30 18:31N 46°09' W 123°24'0 0.0
2018-May-30 18:00N 46°09' W 123°24'0 0.0
2018-May-30 17:30N 46°09' W 123°24'0 0.0
2018-May-30 17:00N 46°09' W 123°24'0 0.7
2018-May-30 16:31N 46°10' W 123°24'0 0.0
2018-May-30 16:00N 46°10' W 123°24'0 0.3
2018-May-30 15:17N 46°10' W 123°24'0 1.5
2018-May-30 15:01N 46°09' W 123°24'0 0.1
2018-May-30 14:31N 46°09' W 123°24'0 0.0
2018-May-30 14:01N 46°09' W 123°24'0 0.0
2018-May-30 13:31N 46°09' W 123°24'0 0.0
2018-May-30 13:00N 46°09' W 123°24'0 0.0
2018-May-30 12:31N 46°09' W 123°24'0 0.0
2018-May-30 12:00N 46°09' W 123°24'0 0.0
2018-May-30 11:31N 46°09' W 123°24'0 0.0
2018-May-30 11:01N 46°09' W 123°24'0 0.0
2018-May-30 10:15N 46°09' W 123°24'0 0.0
2018-May-30 10:00N 46°09' W 123°24'0 0.0
2018-May-30 09:31N 46°09' W 123°24'0 0.0
2018-May-30 09:00N 46°09' W 123°24'0 0.0
2018-May-30 08:31N 46°09' W 123°24'0 0.0
2018-May-30 08:01N 46°09' W 123°24'0 0.0
2018-May-30 07:31N 46°09' W 123°24'0 0.0
2018-May-30 06:59N 46°09' W 123°24'0 0.0
2018-May-30 06:30N 46°09' W 123°24'0 0.0
2018-May-30 06:00N 46°09' W 123°24'0 0.3
2018-May-30 05:16N 46°10' W 123°24'0 1.0
2018-May-30 05:00N 46°09' W 123°24'0 0.0
2018-May-30 04:30N 46°09' W 123°24'0 0.0
2018-May-30 04:00N 46°09' W 123°24'0 0.0
2018-May-30 03:31N 46°09' W 123°24'0 0.0
2018-May-30 02:47N 46°09' W 123°24'0 0.0
2018-May-30 02:30N 46°09' W 123°24'0 0.0
2018-May-30 01:53N 46°09' W 123°24'0 0.0
2018-May-30 01:31N 46°09' W 123°24'0 0.0
2018-May-30 01:00N 46°09' W 123°24'0 0.0
2018-May-30 00:30N 46°09' W 123°24'0 0.0
2018-May-29 23:53N 46°09' W 123°24'0 0.0
2018-May-29 23:31N 46°09' W 123°24'0 0.0
2018-May-29 23:01N 46°09' W 123°24'0 0.0
2018-May-29 22:30N 46°09' W 123°24'0 0.0
2018-May-29 22:00N 46°09' W 123°24'0 0.0
2018-May-29 21:25N 46°09' W 123°24'0 0.0
2018-May-29 21:00N 46°09' W 123°24'0 0.0
2018-May-29 20:31N 46°09' W 123°24'0 0.0
2018-May-29 20:00N 46°09' W 123°24'0 0.0
2018-May-29 19:30N 46°09' W 123°24'0 0.0
2018-May-29 19:00N 46°09' W 123°24'0 0.0
2018-May-29 18:30N 46°09' W 123°24'0 0.0
2018-May-29 18:00N 46°09' W 123°24'0 0.0
2018-May-29 17:30N 46°09' W 123°24'0 0.0
2018-May-29 17:00N 46°09' W 123°24'0 0.4
2018-May-29 16:31N 46°10' W 123°24'0 0.6
2018-May-29 16:01N 46°10' W 123°25'0 1.0
2018-May-29 15:31N 46°09' W 123°24'0 0.0
2018-May-29 15:01N 46°09' W 123°24'0 0.0
2018-May-29 14:31N 46°09' W 123°24'0 0.0
2018-May-29 14:00N 46°09' W 123°24'0 0.0
2018-May-29 13:30N 46°09' W 123°24'0 0.0
2018-May-29 13:00N 46°09' W 123°24'0 0.0
2018-May-29 12:23N 46°09' W 123°24'0 0.0
2018-May-29 11:41N 46°09' W 123°24'0 0.0
2018-May-29 11:30N 46°09' W 123°24'0 0.0
2018-May-29 11:00N 46°09' W 123°24'0 0.0
2018-May-29 10:30N 46°09' W 123°24'0 0.0
2018-May-29 10:01N 46°09' W 123°24'0 0.0
2018-May-29 09:31N 46°09' W 123°24'0 0.0
2018-May-29 09:01N 46°09' W 123°24'0 0.0
2018-May-29 08:30N 46°09' W 123°24'0 0.0
2018-May-29 07:52N 46°09' W 123°24'0 0.0
2018-May-29 07:31N 46°09' W 123°24'0 0.7
2018-May-29 06:59N 46°10' W 123°24'0 0.0
2018-May-29 06:31N 46°10' W 123°24'0 0.8
2018-May-29 06:00N 46°09' W 123°24'0 0.0
2018-May-29 05:31N 46°09' W 123°24'0 0.0
2018-May-29 05:01N 46°09' W 123°24'0 0.0
2018-May-29 04:30N 46°09' W 123°24'0 0.0
2018-May-29 04:00N 46°09' W 123°24'0 0.0
2018-May-29 03:31N 46°09' W 123°24'0 0.0
2018-May-29 03:00N 46°09' W 123°24'0 0.0
2018-May-29 02:16N 46°09' W 123°24'0 0.0
2018-May-29 02:01N 46°09' W 123°24'0 0.0
2018-May-29 01:30N 46°09' W 123°24'0 0.0
2018-May-29 01:01N 46°09' W 123°24'0 0.0
2018-May-29 00:30N 46°09' W 123°24'0 0.0
2018-May-29 00:01N 46°09' W 123°24'0 0.0
2018-May-28 23:31N 46°09' W 123°24'0 0.0
2018-May-28 23:01N 46°09' W 123°24'0 0.9
2018-May-28 22:31N 46°10' W 123°24'0 0.4
2018-May-28 22:00N 46°10' W 123°24'0 0.8
2018-May-28 21:31N 46°09' W 123°24'0 0.0
2018-May-28 21:00N 46°09' W 123°24'0 0.0
2018-May-28 20:16N 46°09' W 123°24'0 0.0
2018-May-28 20:01N 46°09' W 123°24'0 0.0
2018-May-28 19:31N 46°09' W 123°24'0 0.0
2018-May-28 19:00N 46°09' W 123°24'0 0.0
2018-May-28 18:31N 46°09' W 123°24'0 0.0
2018-May-28 18:00N 46°09' W 123°24'0 0.0
2018-May-28 17:29N 46°09' W 123°24'0 0.0
2018-May-28 17:01N 46°09' W 123°24'0 0.0
2018-May-28 16:31N 46°09' W 123°24'0 0.0
2018-May-28 16:00N 46°09' W 123°24'0 0.0
2018-May-28 15:30N 46°09' W 123°24'0 0.6
2018-May-28 15:01N 46°10' W 123°24'0 0.6
2018-May-28 14:30N 46°09' W 123°24'0 0.0
2018-May-28 14:00N 46°09' W 123°24'0 0.0
2018-May-28 13:31N 46°09' W 123°24'0 0.0
2018-May-28 13:00N 46°09' W 123°24'0 0.0
2018-May-28 12:30N 46°09' W 123°24'0 0.0
2018-May-28 12:00N 46°09' W 123°24'0 0.0
2018-May-28 11:30N 46°09' W 123°24'0 0.0
2018-May-28 11:00N 46°09' W 123°24'0 0.0
2018-May-28 10:31N 46°09' W 123°24'0 0.0
2018-May-28 10:01N 46°09' W 123°24'0 0.0
2018-May-28 09:31N 46°09' W 123°24'0 0.0
2018-May-28 08:57N 46°09' W 123°24'0 0.0
2018-May-28 08:30N 46°09' W 123°24'0 0.0
2018-May-28 08:01N 46°09' W 123°24'0 0.0
2018-May-28 07:31N 46°09' W 123°24'0 0.0
2018-May-28 06:59N 46°09' W 123°24'0 0.0
2018-May-28 06:30N 46°09' W 123°24'0 0.5
2018-May-28 06:00N 46°10' W 123°24'0 0.1
2018-May-28 05:31N 46°10' W 123°24'0 0.2
2018-May-28 05:00N 46°10' W 123°25'0 0.9
2018-May-28 04:30N 46°09' W 123°24'0 0.0
2018-May-28 03:56N 46°09' W 123°24'0 0.0
2018-May-28 03:30N 46°09' W 123°24'0 0.0
2018-May-28 02:58N 46°09' W 123°24'0 0.0
2018-May-28 02:30N 46°09' W 123°24'0 0.0
2018-May-28 02:00N 46°09' W 123°24'0 0.0
2018-May-28 01:31N 46°09' W 123°24'0 0.0
2018-May-28 01:01N 46°09' W 123°24'0 0.0
2018-May-28 00:29N 46°09' W 123°24'0 0.0
2018-May-28 00:01N 46°09' W 123°24'0 0.0
2018-May-27 23:31N 46°09' W 123°24'0 0.3
2018-May-27 23:00N 46°10' W 123°24'0 0.7
2018-May-27 22:30N 46°10' W 123°24'0 0.7
2018-May-27 22:01N 46°10' W 123°24'0 0.1
2018-May-27 21:30N 46°10' W 123°24'0 0.1
2018-May-27 21:01N 46°10' W 123°24'0 0.4
2018-May-27 20:30N 46°10' W 123°24'0 0.1
2018-May-27 20:01N 46°10' W 123°24'0 0.8
2018-May-27 19:31N 46°09' W 123°24'0 0.0
2018-May-27 19:01N 46°09' W 123°24'0 0.0
2018-May-27 18:31N 46°09' W 123°24'0 0.0
2018-May-27 18:00N 46°09' W 123°24'0 0.0
2018-May-27 17:31N 46°09' W 123°24'0 0.0
2018-May-27 17:00N 46°09' W 123°24'0 0.0
2018-May-27 16:31N 46°09' W 123°24'0 0.0
2018-May-27 16:01N 46°09' W 123°24'0 0.0
2018-May-27 15:31N 46°09' W 123°24'0 0.0
2018-May-27 15:00N 46°09' W 123°24'0 0.0
2018-May-27 14:31N 46°09' W 123°24'0 0.0
2018-May-27 14:01N 46°09' W 123°24'0 0.0
2018-May-27 13:30N 46°09' W 123°24'0 0.0
2018-May-27 13:00N 46°09' W 123°24'0 0.5
2018-May-27 12:30N 46°10' W 123°24'0 0.2
2018-May-27 12:01N 46°10' W 123°24'0 0.0
2018-May-27 11:31N 46°10' W 123°24'0 0.2
2018-May-27 11:01N 46°10' W 123°25'0 0.9
2018-May-27 10:30N 46°09' W 123°24'0 0.0
2018-May-27 10:00N 46°09' W 123°24'0 0.0
2018-May-27 09:31N 46°09' W 123°24'0 0.0
2018-May-27 09:01N 46°09' W 123°24'0 0.0
2018-May-27 08:30N 46°09' W 123°24'0 0.0
2018-May-27 08:00N 46°09' W 123°24'0 0.0
2018-May-27 07:30N 46°09' W 123°24'0 0.0
2018-May-27 06:59N 46°09' W 123°24'0 0.0
2018-May-27 06:29N 46°09' W 123°24'0 0.0
2018-May-27 06:00N 46°09' W 123°24'0 0.0
2018-May-27 05:29N 46°09' W 123°24'0 0.0
2018-May-27 05:00N 46°09' W 123°24'0 0.0
2018-May-27 04:31N 46°09' W 123°24'0 0.0
2018-May-27 03:55N 46°09' W 123°24'0 1.0
2018-May-27 03:31N 46°10' W 123°24'0 0.1
2018-May-27 02:59N 46°10' W 123°24'0 0.8
2018-May-27 02:30N 46°09' W 123°24'0 0.0
2018-May-27 02:00N 46°09' W 123°24'0 0.0
2018-May-27 01:30N 46°09' W 123°24'0 0.0
2018-May-27 01:01N 46°09' W 123°24'0 0.0
2018-May-27 00:25N 46°09' W 123°24'0 0.0
2018-May-27 00:00N 46°09' W 123°24'0 0.0
2018-May-26 23:31N 46°09' W 123°24'0 0.0
2018-May-26 23:00N 46°09' W 123°24'0 0.0
2018-May-26 22:29N 46°09' W 123°24'0 0.0
2018-May-26 22:00N 46°09' W 123°24'0 0.3
2018-May-26 21:31N 46°10' W 123°24'0 0.6
2018-May-26 20:55N 46°10' W 123°24'0 1.0
2018-May-26 20:24N 46°09' W 123°24'0 0.1
2018-May-26 20:00N 46°09' W 123°24'0 0.2
2018-May-26 19:30N 46°10' W 123°24'0 0.5
2018-May-26 19:00N 46°10' W 123°24'0 0.7
2018-May-26 18:30N 46°09' W 123°24'0 0.0
2018-May-26 18:00N 46°09' W 123°24'0 0.0
2018-May-26 17:31N 46°09' W 123°24'0 0.0
2018-May-26 17:00N 46°09' W 123°24'0 0.0
2018-May-26 16:31N 46°09' W 123°24'0 0.0
2018-May-26 15:28N 46°09' W 123°24'0 0.0
2018-May-26 14:46N 46°09' W 123°24'0 0.0
2018-May-26 14:29N 46°09' W 123°24'0 0.0
2018-May-26 14:00N 46°09' W 123°24'0 0.0
2018-May-26 13:07N 46°09' W 123°24'0 0.0
2018-May-26 12:53N 46°09' W 123°24'0 0.0
2018-May-26 12:31N 46°09' W 123°24'0 0.2
2018-May-26 12:00N 46°10' W 123°24'0 0.7
2018-May-26 11:30N 46°10' W 123°25'0 0.9
2018-May-26 11:00N 46°09' W 123°24'0 0.0
2018-May-26 10:30N 46°09' W 123°24'0 0.0
2018-May-26 10:00N 46°09' W 123°24'0 0.0
2018-May-26 09:30N 46°09' W 123°24'0 0.0
2018-May-26 09:00N 46°09' W 123°24'0 0.0
2018-May-26 08:30N 46°09' W 123°24'0 0.0
2018-May-26 07:58N 46°09' W 123°24'0 0.0
2018-May-26 07:30N 46°09' W 123°24'0 0.0
2018-May-26 06:59N 46°09' W 123°24'0 0.0
2018-May-26 06:30N 46°09' W 123°24'0 0.0
2018-May-26 05:30N 46°09' W 123°24'0 0.0
2018-May-26 05:01N 46°09' W 123°24'0 0.0
2018-May-26 04:30N 46°09' W 123°24'0 0.9
2018-May-26 04:00N 46°10' W 123°25'0 0.2
2018-May-26 03:31N 46°10' W 123°24'0 0.7
2018-May-26 03:00N 46°09' W 123°24'0 0.0
2018-May-26 02:30N 46°09' W 123°24'0 0.0
2018-May-26 02:00N 46°09' W 123°24'0 0.0
2018-May-26 01:30N 46°09' W 123°24'0 0.0
2018-May-26 01:01N 46°09' W 123°24'0 0.0
2018-May-26 00:26N 46°09' W 123°24'0 0.0
2018-May-26 00:00N 46°09' W 123°24'0 0.0
2018-May-25 23:30N 46°09' W 123°24'0 0.0
2018-May-25 23:01N 46°09' W 123°24'0 0.0
2018-May-25 22:30N 46°09' W 123°24'0 0.3
2018-May-25 22:00N 46°10' W 123°24'0 0.3
2018-May-25 21:31N 46°10' W 123°24'0 0.6
2018-May-25 21:00N 46°09' W 123°24'0 0.0
2018-May-25 20:30N 46°09' W 123°24'0 0.0
2018-May-25 20:01N 46°09' W 123°24'0 0.0
2018-May-25 19:31N 46°09' W 123°24'0 0.0
2018-May-25 19:00N 46°09' W 123°24'0 1.0
2018-May-25 18:30N 46°10' W 123°24'1 1.0
2018-May-25 18:01N 46°09' W 123°24'0 0.1
2018-May-25 17:30N 46°09' W 123°24'0 0.6
2018-May-25 17:00N 46°10' W 123°24'  

Dump ship's entire track history